Wetterdaten: Woche 22.12.25 - 28.12.25 (KW52)
Datum Zeit Temp. I. Temp. A. Feuchte I. Feuchte A. Luftdruck Regen Wind Richtung Sonnenschein Solar Taupunkt Windchill Windböen
22.12.2025 00:00 21,8 °C 5,3 °C 57 % 93 % 1016,2 hPa 0,0 l/m² 13,1 km/h (3 Bft) O 0,00 h 0 W/m² 4,2 °C 0,7 °C 19,9 km/h (4 Bft)
22.12.2025 01:00 21,8 °C 5,6 °C 58 % 93 % 1015,6 hPa 0,0 l/m² 14,3 km/h (3 Bft) O-NO 0,00 h 0 W/m² 4,5 °C 0,2 °C 21,2 km/h (4 Bft)
22.12.2025 02:00 21,8 °C 5,8 °C 58 % 92 % 1015,5 hPa 0,0 l/m² 14,5 km/h (3 Bft) O-NO 0,00 h 0 W/m² 4,7 °C 0,4 °C 21,0 km/h (4 Bft)
22.12.2025 03:00 21,7 °C 5,8 °C 58 % 92 % 1015,5 hPa 0,0 l/m² 15,7 km/h (3 Bft) O 0,00 h 0 W/m² 4,6 °C -0,1 °C 21,9 km/h (4 Bft)
22.12.2025 04:00 21,7 °C 5,7 °C 58 % 91 % 1015,5 hPa 0,0 l/m² 17,3 km/h (3 Bft) O 0,00 h 0 W/m² 4,3 °C -1,1 °C 23,3 km/h (4 Bft)
22.12.2025 05:00 21,7 °C 5,6 °C 58 % 90 % 1015,4 hPa 0,0 l/m² 16,6 km/h (3 Bft) O 0,00 h 0 W/m² 4,1 °C -0,9 °C 22,1 km/h (4 Bft)
22.12.2025 06:00 21,7 °C 5,6 °C 58 % 90 % 1015,4 hPa 0,0 l/m² 16,8 km/h (3 Bft) O 0,00 h 0 W/m² 4,0 °C -1,0 °C 22,5 km/h (4 Bft)
22.12.2025 07:00 21,6 °C 5,5 °C 58 % 89 % 1015,5 hPa 0,0 l/m² 15,4 km/h (3 Bft) O 0,00 h 0 W/m² 3,8 °C -0,4 °C 20,0 km/h (4 Bft)
22.12.2025 08:00 21,7 °C 5,1 °C 58 % 90 % 1015,8 hPa 0,0 l/m² 17,5 km/h (3 Bft) O 0,00 h 5 W/m² 3,6 °C -1,8 °C 22,3 km/h (4 Bft)
22.12.2025 09:00 21,8 °C 5,0 °C 58 % 90 % 1016,0 hPa 0,0 l/m² 18,9 km/h (3 Bft) O 0,00 h 16 W/m² 3,5 °C -2,6 °C 24,1 km/h (4 Bft)
22.12.2025 10:00 21,7 °C 5,0 °C 56 % 88 % 1016,1 hPa 0,0 l/m² 16,5 km/h (3 Bft) O 0,15 h 44 W/m² 3,2 °C -1,4 °C 22,3 km/h (4 Bft)
22.12.2025 11:00 21,6 °C 5,2 °C 55 % 87 % 1016,0 hPa 0,0 l/m² 12,3 km/h (2 Bft) O-NO 0,60 h 55 W/m² 3,2 °C 1,0 °C 17,9 km/h (3 Bft)
22.12.2025 12:00 21,5 °C 5,5 °C 56 % 86 % 1015,7 hPa 0,0 l/m² 10,1 km/h (2 Bft) O-NO 0,98 h 63 W/m² 3,4 °C 2,7 °C 16,1 km/h (3 Bft)
22.12.2025 13:00 21,6 °C 5,7 °C 56 % 85 % 1015,5 hPa 0,0 l/m² 12,2 km/h (2 Bft) O 0,02 h 44 W/m² 3,3 °C 1,6 °C 18,0 km/h (3 Bft)
22.12.2025 14:00 21,6 °C 5,7 °C 56 % 84 % 1015,4 hPa 0,0 l/m² 14,4 km/h (3 Bft) O-NO 0,00 h 29 W/m² 3,2 °C 0,3 °C 21,2 km/h (4 Bft)
22.12.2025 15:00 21,6 °C 5,6 °C 56 % 84 % 1015,6 hPa 0,0 l/m² 13,9 km/h (3 Bft) O 0,00 h 7 W/m² 3,1 °C 0,6 °C 20,0 km/h (4 Bft)
22.12.2025 16:00 21,7 °C 5,4 °C 56 % 84 % 1015,9 hPa 0,0 l/m² 10,9 km/h (2 Bft) O-NO 0,00 h 0 W/m² 3,0 °C 2,0 °C 16,7 km/h (3 Bft)
22.12.2025 17:00 21,7 °C 5,3 °C 54 % 85 % 1016,1 hPa 0,0 l/m² 10,9 km/h (2 Bft) O-NO 0,00 h 0 W/m² 2,9 °C 1,9 °C 16,2 km/h (3 Bft)
22.12.2025 18:00 21,6 °C 5,2 °C 54 % 85 % 1016,1 hPa 0,0 l/m² 10,6 km/h (2 Bft) O-NO 0,00 h 0 W/m² 2,9 °C 2,0 °C 16,4 km/h (3 Bft)
22.12.2025 19:00 21,4 °C 5,2 °C 54 % 86 % 1016,3 hPa 0,0 l/m² 9,1 km/h (2 Bft) NO 0,00 h 0 W/m² 3,0 °C 3,0 °C 15,5 km/h (3 Bft)
22.12.2025 20:00 21,4 °C 5,1 °C 54 % 86 % 1016,6 hPa 0,0 l/m² 8,6 km/h (2 Bft) O-NO 0,00 h 0 W/m² 3,0 °C 3,2 °C 14,6 km/h (3 Bft)
22.12.2025 21:00 21,9 °C 4,8 °C 54 % 88 % 1017,0 hPa 0,0 l/m² 6,8 km/h (2 Bft) NO 0,00 h 0 W/m² 3,0 °C 4,0 °C 13,1 km/h (3 Bft)
22.12.2025 22:00 22,5 °C 4,4 °C 55 % 89 % 1017,3 hPa 0,0 l/m² 8,4 km/h (2 Bft) NO 0,00 h 0 W/m² 2,7 °C 2,4 °C 15,3 km/h (3 Bft)
22.12.2025 23:00 22,2 °C 4,0 °C 54 % 90 % 1017,3 hPa 0,0 l/m² 9,4 km/h (2 Bft) NO 0,00 h 0 W/m² 2,5 °C 1,5 °C 17,5 km/h (3 Bft)
23.12.2025 00:00 21,9 °C 3,9 °C 55 % 90 % 1017,3 hPa 0,0 l/m² 11,1 km/h (2 Bft) NO 0,00 h 0 W/m² 2,4 °C 0,2 °C 19,8 km/h (4 Bft)
23.12.2025 01:00 21,8 °C 3,6 °C 55 % 90 % 1017,6 hPa 0,0 l/m² 9,8 km/h (2 Bft) NO 0,00 h 0 W/m² 2,2 °C 0,8 °C 18,1 km/h (3 Bft)
23.12.2025 02:00 21,7 °C 3,4 °C 55 % 90 % 1018,0 hPa 0,0 l/m² 7,8 km/h (2 Bft) NO 0,00 h 0 W/m² 1,9 °C 1,9 °C 15,2 km/h (3 Bft)
23.12.2025 03:00 21,6 °C 3,1 °C 55 % 91 % 1018,3 hPa 0,0 l/m² 9,0 km/h (2 Bft) NO 0,00 h 0 W/m² 1,7 °C 0,7 °C 15,9 km/h (3 Bft)
23.12.2025 04:00 21,6 °C 2,7 °C 55 % 91 % 1018,4 hPa 0,0 l/m² 10,1 km/h (2 Bft) NO 0,00 h 0 W/m² 1,4 °C -0,5 °C 17,1 km/h (3 Bft)
23.12.2025 05:00 21,5 °C 2,6 °C 55 % 91 % 1018,7 hPa 0,0 l/m² 9,1 km/h (2 Bft) NO 0,00 h 0 W/m² 1,3 °C 0,1 °C 16,2 km/h (3 Bft)
23.12.2025 06:00 21,4 °C 2,5 °C 55 % 91 % 1019,2 hPa 0,0 l/m² 9,0 km/h (2 Bft) NO 0,00 h 0 W/m² 1,2 °C 0,1 °C 16,3 km/h (3 Bft)
23.12.2025 07:00 21,4 °C 2,3 °C 55 % 91 % 1019,9 hPa 0,0 l/m² 9,2 km/h (2 Bft) NO 0,00 h 0 W/m² 1,0 °C -0,4 °C 16,3 km/h (3 Bft)
23.12.2025 08:00 21,4 °C 2,2 °C 55 % 91 % 1020,5 hPa 0,0 l/m² 10,7 km/h (2 Bft) NO 0,00 h 5 W/m² 0,9 °C -1,4 °C 18,5 km/h (3 Bft)
23.12.2025 09:00 21,6 °C 2,2 °C 55 % 91 % 1021,1 hPa 0,0 l/m² 11,3 km/h (2 Bft) NO 0,00 h 11 W/m² 0,9 °C -1,8 °C 19,4 km/h (3 Bft)
23.12.2025 10:00 21,4 °C 2,3 °C 52 % 91 % 1021,6 hPa 0,0 l/m² 12,2 km/h (2 Bft) O-NO 0,00 h 20 W/m² 1,0 °C -2,2 °C 19,9 km/h (4 Bft)
23.12.2025 11:00 21,4 °C 2,5 °C 53 % 90 % 1021,8 hPa 0,0 l/m² 11,0 km/h (2 Bft) NO 0,00 h 27 W/m² 1,1 °C -1,2 °C 18,2 km/h (3 Bft)
23.12.2025 12:00 21,4 °C 2,7 °C 54 % 90 % 1021,8 hPa 0,0 l/m² 12,3 km/h (2 Bft) O-NO 0,00 h 33 W/m² 1,2 °C -1,9 °C 21,0 km/h (4 Bft)
23.12.2025 13:00 21,3 °C 2,8 °C 53 % 89 % 1022,3 hPa 0,0 l/m² 13,8 km/h (3 Bft) O-NO 0,00 h 31 W/m² 1,1 °C -2,7 °C 22,2 km/h (4 Bft)
23.12.2025 14:00 21,3 °C 2,8 °C 54 % 87 % 1022,7 hPa 0,0 l/m² 13,7 km/h (3 Bft) NO 0,00 h 25 W/m² 0,9 °C -2,7 °C 22,7 km/h (4 Bft)
23.12.2025 15:00 21,5 °C 2,6 °C 56 % 88 % 1023,3 hPa 0,0 l/m² 12,6 km/h (2 Bft) NO 0,00 h 11 W/m² 0,8 °C -2,1 °C 21,4 km/h (4 Bft)
23.12.2025 16:00 21,8 °C 2,3 °C 58 % 88 % 1024,1 hPa 0,0 l/m² 14,1 km/h (3 Bft) O-NO 0,00 h 0 W/m² 0,5 °C -3,4 °C 22,4 km/h (4 Bft)
23.12.2025 17:00 21,8 °C 2,0 °C 58 % 87 % 1024,9 hPa 0,0 l/m² 14,1 km/h (3 Bft) NO 0,00 h 0 W/m² 0,1 °C -3,8 °C 22,7 km/h (4 Bft)
23.12.2025 18:00 21,7 °C 1,9 °C 56 % 83 % 1025,8 hPa 0,0 l/m² 14,6 km/h (3 Bft) O-NO 0,00 h 0 W/m² -0,6 °C -4,1 °C 23,3 km/h (4 Bft)
23.12.2025 19:00 21,3 °C 2,0 °C 52 % 81 % 1026,3 hPa 0,0 l/m² 7,4 km/h (2 Bft) NO 0,00 h 0 W/m² -0,9 °C 0,6 °C 13,2 km/h (3 Bft)
23.12.2025 20:00 21,9 °C 1,9 °C 54 % 80 % 1026,7 hPa 0,0 l/m² 7,1 km/h (2 Bft) NO 0,00 h 0 W/m² -1,1 °C 0,8 °C 12,9 km/h (3 Bft)
23.12.2025 21:00 22,4 °C 2,3 °C 55 % 76 % 1027,4 hPa 0,0 l/m² 13,5 km/h (3 Bft) NO 0,00 h 0 W/m² -1,5 °C -3,2 °C 22,2 km/h (4 Bft)
23.12.2025 22:00 22,2 °C 2,5 °C 54 % 72 % 1027,8 hPa 0,0 l/m² 11,1 km/h (2 Bft) O-NO 0,00 h 0 W/m² -1,9 °C -1,3 °C 18,6 km/h (3 Bft)
23.12.2025 23:00 21,7 °C 2,0 °C 54 % 74 % 1028,0 hPa 0,0 l/m² 8,3 km/h (2 Bft) N-NO 0,00 h 0 W/m² -2,2 °C 0,1 °C 15,8 km/h (3 Bft)
24.12.2025 00:00 21,6 °C 0,7 °C 54 % 79 % 1028,5 hPa 0,0 l/m² 7,1 km/h (2 Bft) N-NO 0,00 h 0 W/m² -2,5 °C -0,2 °C 14,1 km/h (3 Bft)
24.12.2025 01:00 21,6 °C -0,1 °C 54 % 83 % 1028,8 hPa 0,0 l/m² 6,7 km/h (2 Bft) N 0,00 h 0 W/m² -2,6 °C -1,0 °C 12,3 km/h (2 Bft)
24.12.2025 02:00 21,6 °C 0,0 °C 54 % 86 % 1029,4 hPa 0,0 l/m² 9,2 km/h (2 Bft) N-NO 0,00 h 0 W/m² -2,0 °C -2,6 °C 16,4 km/h (3 Bft)
24.12.2025 03:00 21,6 °C 0,4 °C 54 % 87 % 1029,6 hPa 0,0 l/m² 10,0 km/h (2 Bft) N-NO 0,00 h 0 W/m² -1,5 °C -2,9 °C 17,5 km/h (3 Bft)
24.12.2025 04:00 21,6 °C 0,4 °C 54 % 87 % 1029,7 hPa 0,0 l/m² 8,8 km/h (2 Bft) N-NO 0,00 h 0 W/m² -1,5 °C -1,9 °C 15,6 km/h (3 Bft)
24.12.2025 05:00 21,6 °C 0,4 °C 54 % 86 % 1030,1 hPa 0,0 l/m² 11,1 km/h (2 Bft) NO 0,00 h 0 W/m² -1,6 °C -3,7 °C 18,9 km/h (3 Bft)
24.12.2025 06:00 21,6 °C 0,3 °C 54 % 85 % 1030,7 hPa 0,0 l/m² 10,0 km/h (2 Bft) NO 0,00 h 0 W/m² -2,0 °C -3,0 °C 16,4 km/h (3 Bft)
24.12.2025 07:00 21,6 °C -0,0 °C 54 % 84 % 1031,1 hPa 0,0 l/m² 8,9 km/h (2 Bft) NO 0,00 h 0 W/m² -2,4 °C -2,5 °C 15,6 km/h (3 Bft)
24.12.2025 08:00 21,6 °C -0,7 °C 54 % 83 % 1031,7 hPa 0,0 l/m² 12,6 km/h (3 Bft) O-NO 0,00 h 6 W/m² -3,2 °C -6,0 °C 21,3 km/h (4 Bft)
24.12.2025 09:00 21,8 °C -0,8 °C 55 % 83 % 1032,6 hPa 0,0 l/m² 12,6 km/h (3 Bft) NO 0,00 h 24 W/m² -3,4 °C -6,2 °C 19,8 km/h (3 Bft)
24.12.2025 10:00 21,9 °C -0,7 °C 56 % 82 % 1033,2 hPa 0,0 l/m² 8,8 km/h (2 Bft) N-NO 0,28 h 45 W/m² -3,3 °C -3,3 °C 15,5 km/h (3 Bft)
24.12.2025 11:00 21,9 °C -0,5 °C 53 % 81 % 1033,2 hPa 0,0 l/m² 11,6 km/h (2 Bft) NO 0,85 h 61 W/m² -3,4 °C -5,0 °C 19,0 km/h (3 Bft)
24.12.2025 12:00 21,8 °C -0,6 °C 53 % 79 % 1033,1 hPa 0,0 l/m² 10,7 km/h (2 Bft) NO 1,00 h 71 W/m² -3,8 °C -4,5 °C 18,9 km/h (3 Bft)
24.12.2025 13:00 21,9 °C -0,8 °C 54 % 79 % 1032,9 hPa 0,0 l/m² 10,7 km/h (2 Bft) N-NO 0,33 h 47 W/m² -4,0 °C -4,8 °C 18,5 km/h (3 Bft)
24.12.2025 14:00 21,9 °C -1,2 °C 53 % 77 % 1033,2 hPa 0,0 l/m² 11,5 km/h (2 Bft) N-NO 0,00 h 38 W/m² -4,6 °C -5,8 °C 20,2 km/h (4 Bft)
24.12.2025 15:00 22,1 °C -1,6 °C 52 % 76 % 1033,5 hPa 0,0 l/m² 10,7 km/h (2 Bft) N-NO 0,00 h 16 W/m² -5,2 °C -5,7 °C 18,4 km/h (3 Bft)
24.12.2025 16:00 21,9 °C -2,1 °C 50 % 77 % 1033,8 hPa 0,0 l/m² 9,9 km/h (2 Bft) NO 0,00 h 5 W/m² -5,6 °C -5,5 °C 17,2 km/h (3 Bft)
24.12.2025 17:00 21,9 °C -2,4 °C 51 % 78 % 1034,1 hPa 0,0 l/m² 9,4 km/h (2 Bft) NO 0,00 h 0 W/m² -5,6 °C -5,4 °C 16,3 km/h (3 Bft)
24.12.2025 18:00 21,9 °C -2,7 °C 51 % 79 % 1034,4 hPa 0,0 l/m² 10,6 km/h (2 Bft) NO 0,00 h 0 W/m² -5,8 °C -6,8 °C 18,8 km/h (3 Bft)
24.12.2025 19:00 22,0 °C -3,6 °C 53 % 80 % 1034,9 hPa 0,0 l/m² 8,1 km/h (2 Bft) NO 0,00 h 0 W/m² -6,5 °C -5,8 °C 14,9 km/h (3 Bft)
24.12.2025 20:00 22,5 °C -4,7 °C 54 % 82 % 1035,5 hPa 0,0 l/m² 7,3 km/h (2 Bft) NO 0,00 h 0 W/m² -7,3 °C -6,2 °C 13,2 km/h (3 Bft)
24.12.2025 21:00 22,8 °C -5,4 °C 54 % 83 % 1035,5 hPa 0,0 l/m² 6,5 km/h (2 Bft) NO 0,00 h 0 W/m² -7,8 °C -6,9 °C 12,5 km/h (2 Bft)
24.12.2025 22:00 22,5 °C -5,8 °C 53 % 84 % 1035,7 hPa 0,0 l/m² 3,5 km/h (1 Bft) N-NO 0,00 h 0 W/m² -8,1 °C -6,0 °C 7,5 km/h (2 Bft)
24.12.2025 23:00 22,3 °C -5,8 °C 52 % 84 % 1035,7 hPa 0,0 l/m² 4,8 km/h (1 Bft) N-NO 0,00 h 0 W/m² -8,1 °C -6,1 °C 9,2 km/h (2 Bft)
25.12.2025 00:00 22,2 °C -5,9 °C 52 % 84 % 1035,8 hPa 0,0 l/m² 4,6 km/h (1 Bft) N-NO 0,00 h 0 W/m² -8,2 °C -6,0 °C 8,9 km/h (2 Bft)
25.12.2025 01:00 22,1 °C -6,1 °C 52 % 84 % 1035,9 hPa 0,0 l/m² 4,0 km/h (1 Bft) NO 0,00 h 0 W/m² -8,4 °C -6,2 °C 8,3 km/h (2 Bft)
25.12.2025 02:00 22,1 °C -6,2 °C 52 % 84 % 1036,0 hPa 0,0 l/m² 4,8 km/h (1 Bft) NO 0,00 h 0 W/m² -8,4 °C -6,4 °C 9,0 km/h (2 Bft)
25.12.2025 03:00 22,1 °C -6,1 °C 52 % 84 % 1035,6 hPa 0,0 l/m² 7,5 km/h (2 Bft) NO 0,00 h 0 W/m² -8,4 °C -8,0 °C 13,7 km/h (3 Bft)
25.12.2025 04:00 22,0 °C -6,1 °C 52 % 85 % 1035,3 hPa 0,0 l/m² 8,2 km/h (2 Bft) NO 0,00 h 0 W/m² -8,2 °C -8,6 °C 14,8 km/h (3 Bft)
25.12.2025 05:00 21,9 °C -6,1 °C 52 % 84 % 1035,3 hPa 0,0 l/m² 8,4 km/h (2 Bft) NO 0,00 h 0 W/m² -8,3 °C -8,7 °C 15,1 km/h (3 Bft)
25.12.2025 06:00 21,9 °C -6,3 °C 52 % 84 % 1035,6 hPa 0,0 l/m² 8,6 km/h (2 Bft) NO 0,00 h 0 W/m² -8,6 °C -9,1 °C 15,0 km/h (3 Bft)
25.12.2025 07:00 21,9 °C -6,6 °C 53 % 85 % 1036,0 hPa 0,0 l/m² 8,2 km/h (2 Bft) NO 0,00 h 0 W/m² -8,6 °C -9,0 °C 15,1 km/h (3 Bft)
25.12.2025 08:00 22,1 °C -6,6 °C 54 % 85 % 1036,6 hPa 0,0 l/m² 6,0 km/h (2 Bft) N-NO 0,00 h 7 W/m² -8,6 °C -7,5 °C 12,4 km/h (2 Bft)
25.12.2025 09:00 22,3 °C -6,6 °C 55 % 85 % 1036,6 hPa 0,0 l/m² 6,6 km/h (2 Bft) NO 0,00 h 22 W/m² -8,7 °C -7,9 °C 13,2 km/h (3 Bft)
25.12.2025 10:00 22,0 °C -6,3 °C 50 % 86 % 1036,6 hPa 0,0 l/m² 9,1 km/h (2 Bft) O-NO 0,42 h 45 W/m² -8,3 °C -9,6 °C 14,6 km/h (3 Bft)
25.12.2025 11:00 22,1 °C -5,9 °C 51 % 85 % 1035,9 hPa 0,0 l/m² 10,7 km/h (2 Bft) O-NO 0,97 h 61 W/m² -7,9 °C -10,6 °C 16,4 km/h (3 Bft)
25.12.2025 12:00 22,6 °C -5,4 °C 56 % 85 % 1035,3 hPa 0,0 l/m² 9,8 km/h (2 Bft) O-NO 0,98 h 81 W/m² -7,5 °C -9,3 °C 15,5 km/h (3 Bft)
25.12.2025 13:00 22,7 °C -5,0 °C 57 % 84 % 1034,8 hPa 0,0 l/m² 6,7 km/h (2 Bft) O-NO 1,00 h 89 W/m² -7,3 °C -6,5 °C 11,8 km/h (2 Bft)
25.12.2025 14:00 22,6 °C -4,2 °C 54 % 82 % 1034,6 hPa 0,0 l/m² 5,6 km/h (2 Bft) N 0,98 h 122 W/m² -6,7 °C -4,9 °C 10,4 km/h (2 Bft)
25.12.2025 15:00 22,7 °C -4,2 °C 55 % 80 % 1034,7 hPa 0,0 l/m² 4,7 km/h (1 Bft) NO 0,07 h 27 W/m² -7,1 °C -4,5 °C 9,7 km/h (2 Bft)
25.12.2025 16:00 23,0 °C -4,9 °C 57 % 81 % 1034,5 hPa 0,0 l/m² 0,9 km/h (0 Bft) N 0,00 h 6 W/m² -7,7 °C -4,9 °C 2,9 km/h (1 Bft)
25.12.2025 17:00 22,6 °C -5,8 °C 48 % 82 % 1034,4 hPa 0,0 l/m² 1,2 km/h (1 Bft) N 0,00 h 0 W/m² -8,4 °C -5,8 °C 3,1 km/h (1 Bft)
25.12.2025 18:00 21,7 °C -6,1 °C 42 % 83 % 1034,3 hPa 0,0 l/m² 2,6 km/h (1 Bft) N 0,00 h 0 W/m² -8,5 °C -6,1 °C 5,1 km/h (1 Bft)
25.12.2025 19:00 21,7 °C -6,6 °C 46 % 84 % 1034,3 hPa 0,0 l/m² 3,2 km/h (1 Bft) N 0,00 h 0 W/m² -8,8 °C -6,6 °C 6,4 km/h (2 Bft)
25.12.2025 20:00 22,1 °C -6,9 °C 48 % 85 % 1034,5 hPa 0,0 l/m² 1,2 km/h (1 Bft) N 0,00 h 0 W/m² -9,0 °C -6,9 °C 2,7 km/h (1 Bft)
25.12.2025 21:00 22,7 °C -7,4 °C 47 % 85 % 1034,5 hPa 0,0 l/m² 0,1 km/h (0 Bft) N 0,00 h 0 W/m² -9,5 °C -7,4 °C 0,4 km/h (0 Bft)
25.12.2025 22:00 22,8 °C -7,7 °C 48 % 85 % 1034,4 hPa 0,0 l/m² 0,0 km/h (0 Bft) N 0,00 h 0 W/m² -9,7 °C -7,7 °C 0,2 km/h (0 Bft)
25.12.2025 23:00 22,5 °C -8,0 °C 47 % 86 % 1034,4 hPa 0,0 l/m² 0,0 km/h (0 Bft) N 0,00 h 0 W/m² -10,0 °C -8,0 °C 0,1 km/h (0 Bft)
26.12.2025 00:00 22,3 °C -8,3 °C 48 % 86 % 1034,3 hPa 0,0 l/m² 0,7 km/h (0 Bft) N-NW 0,00 h 0 W/m² -10,2 °C -8,3 °C 1,8 km/h (1 Bft)
26.12.2025 01:00 22,3 °C -8,3 °C 48 % 88 % 1034,4 hPa 0,0 l/m² 1,4 km/h (1 Bft) N-NW 0,00 h 0 W/m² -10,0 °C -8,3 °C 3,0 km/h (1 Bft)
26.12.2025 02:00 22,2 °C -8,3 °C 48 % 88 % 1034,1 hPa 0,0 l/m² 0,1 km/h (0 Bft) W-NW 0,00 h 0 W/m² -9,9 °C -8,3 °C 0,4 km/h (0 Bft)
26.12.2025 03:00 22,3 °C -8,5 °C 48 % 88 % 1034,1 hPa 0,0 l/m² 0,1 km/h (0 Bft) W 0,00 h 0 W/m² -10,1 °C -8,5 °C 0,4 km/h (0 Bft)
26.12.2025 04:00 22,2 °C -8,5 °C 49 % 88 % 1033,9 hPa 0,0 l/m² 0,1 km/h (0 Bft) W 0,00 h 0 W/m² -10,1 °C -8,5 °C 0,5 km/h (0 Bft)
26.12.2025 05:00 22,2 °C -8,2 °C 49 % 89 % 1034,1 hPa 0,0 l/m² 0,0 km/h (0 Bft) N-NW 0,00 h 0 W/m² -9,8 °C -8,2 °C 0,3 km/h (0 Bft)
26.12.2025 06:00 22,3 °C -8,0 °C 49 % 89 % 1033,8 hPa 0,0 l/m² 0,0 km/h (0 Bft) N-NW 0,00 h 0 W/m² -9,5 °C -8,0 °C 0,0 km/h (0 Bft)
26.12.2025 07:00 22,2 °C -8,0 °C 49 % 89 % 1034,2 hPa 0,0 l/m² 0,0 km/h (0 Bft) W-NW 0,00 h 0 W/m² -9,5 °C -8,0 °C 0,0 km/h (0 Bft)
26.12.2025 08:00 22,3 °C -7,9 °C 50 % 89 % 1034,5 hPa 0,0 l/m² 0,0 km/h (0 Bft) W-NW 0,00 h 17 W/m² -9,4 °C -7,9 °C 0,0 km/h (0 Bft)
26.12.2025 09:00 22,5 °C -7,4 °C 51 % 89 % 1034,9 hPa 0,0 l/m² 0,0 km/h (0 Bft) W-NW 0,70 h 59 W/m² -8,9 °C -7,4 °C 0,1 km/h (0 Bft)
26.12.2025 10:00 22,7 °C -5,7 °C 50 % 89 % 1034,9 hPa 0,0 l/m² 0,2 km/h (0 Bft) W 1,00 h 186 W/m² -7,2 °C -5,7 °C 0,8 km/h (0 Bft)
26.12.2025 11:00 22,9 °C -3,9 °C 50 % 86 % 1034,5 hPa 0,0 l/m² 0,2 km/h (0 Bft) SW 1,00 h 261 W/m² -5,9 °C -3,9 °C 0,7 km/h (0 Bft)
26.12.2025 12:00 23,0 °C -2,0 °C 50 % 81 % 1034,6 hPa 0,0 l/m² 1,0 km/h (0 Bft) SW 1,00 h 268 W/m² -4,9 °C -2,0 °C 2,4 km/h (1 Bft)
26.12.2025 13:00 22,8 °C -1,5 °C 51 % 79 % 1034,5 hPa 0,0 l/m² 1,2 km/h (1 Bft) S-SO 0,98 h 221 W/m² -4,6 °C -1,5 °C 2,6 km/h (1 Bft)
26.12.2025 14:00 22,7 °C -0,9 °C 51 % 78 % 1034,2 hPa 0,0 l/m² 0,1 km/h (0 Bft) S 1,02 h 138 W/m² -4,3 °C -0,9 °C 0,6 km/h (0 Bft)
26.12.2025 15:00 22,6 °C -0,5 °C 51 % 75 % 1034,4 hPa 0,0 l/m² 0,0 km/h (0 Bft) S 0,27 h 38 W/m² -4,3 °C -0,5 °C 0,0 km/h (0 Bft)
26.12.2025 16:00 22,8 °C -2,7 °C 53 % 78 % 1034,7 hPa 0,0 l/m² 1,6 km/h (1 Bft) S 0,00 h 6 W/m² -5,9 °C -2,7 °C 3,6 km/h (1 Bft)
26.12.2025 17:00 22,8 °C -4,7 °C 53 % 83 % 1034,8 hPa 0,0 l/m² 0,0 km/h (0 Bft) S 0,00 h 0 W/m² -7,3 °C -4,7 °C 0,1 km/h (0 Bft)
26.12.2025 18:00 22,8 °C -5,9 °C 53 % 85 % 1035,6 hPa 0,0 l/m² 0,4 km/h (0 Bft) SO 0,00 h 0 W/m² -7,9 °C -5,9 °C 1,3 km/h (1 Bft)
26.12.2025 19:00 22,7 °C -6,6 °C 53 % 87 % 1035,7 hPa 0,0 l/m² 0,9 km/h (0 Bft) S 0,00 h 0 W/m² -8,4 °C -6,6 °C 1,6 km/h (1 Bft)
26.12.2025 20:00 22,9 °C -6,7 °C 52 % 88 % 1036,0 hPa 0,0 l/m² 0,1 km/h (0 Bft) S 0,00 h 0 W/m² -8,3 °C -6,7 °C 0,6 km/h (0 Bft)
26.12.2025 21:00 23,3 °C -6,7 °C 50 % 89 % 1036,3 hPa 0,0 l/m² 0,2 km/h (0 Bft) S 0,00 h 0 W/m² -8,2 °C -6,7 °C 0,6 km/h (0 Bft)
26.12.2025 22:00 23,1 °C -7,1 °C 48 % 89 % 1036,2 hPa 0,0 l/m² 0,0 km/h (0 Bft) S 0,00 h 0 W/m² -8,6 °C -7,1 °C 0,0 km/h (0 Bft)
26.12.2025 23:00 22,8 °C -7,4 °C 49 % 89 % 1035,9 hPa 0,0 l/m² 0,0 km/h (0 Bft) S 0,00 h 0 W/m² -8,9 °C -7,4 °C 0,0 km/h (0 Bft)
27.12.2025 00:00 22,7 °C -7,7 °C 50 % 90 % 1035,9 hPa 0,0 l/m² 0,1 km/h (0 Bft) O-SO 0,00 h 0 W/m² -9,0 °C -7,7 °C 0,6 km/h (0 Bft)
27.12.2025 01:00 22,7 °C -7,7 °C 50 % 90 % 1035,6 hPa 0,0 l/m² 0,0 km/h (0 Bft) O-SO 0,00 h 0 W/m² -9,0 °C -7,7 °C 0,0 km/h (0 Bft)
27.12.2025 02:00 22,7 °C -7,8 °C 50 % 90 % 1035,0 hPa 0,0 l/m² 0,0 km/h (0 Bft) O-SO 0,00 h 0 W/m² -9,1 °C -7,8 °C 0,0 km/h (0 Bft)
27.12.2025 03:00 22,6 °C -7,9 °C 50 % 90 % 1034,8 hPa 0,0 l/m² 0,0 km/h (0 Bft) O-SO 0,00 h 0 W/m² -9,2 °C -7,9 °C 0,1 km/h (0 Bft)
27.12.2025 04:00 22,6 °C -8,0 °C 50 % 90 % 1034,5 hPa 0,0 l/m² 0,0 km/h (0 Bft) O-SO 0,00 h 0 W/m² -9,3 °C -8,0 °C 0,0 km/h (0 Bft)
27.12.2025 05:00 22,7 °C -8,1 °C 50 % 90 % 1034,0 hPa 0,0 l/m² 0,0 km/h (0 Bft) O-SO 0,00 h 0 W/m² -9,4 °C -8,1 °C 0,0 km/h (0 Bft)
27.12.2025 06:00 22,6 °C -8,1 °C 50 % 90 % 1033,5 hPa 0,0 l/m² 0,0 km/h (0 Bft) O-SO 0,00 h 0 W/m² -9,5 °C -8,1 °C 0,0 km/h (0 Bft)
27.12.2025 07:00 22,5 °C -8,1 °C 50 % 90 % 1033,3 hPa 0,0 l/m² 0,0 km/h (0 Bft) O-SO 0,00 h 0 W/m² -9,4 °C -8,1 °C 0,0 km/h (0 Bft)
27.12.2025 08:00 22,5 °C -7,9 °C 48 % 90 % 1033,8 hPa 0,0 l/m² 0,0 km/h (0 Bft) O-SO 0,00 h 16 W/m² -9,2 °C -7,9 °C 0,0 km/h (0 Bft)
27.12.2025 09:00 22,8 °C -6,9 °C 46 % 91 % 1033,7 hPa 0,0 l/m² 0,0 km/h (0 Bft) S-SW 0,60 h 67 W/m² -8,1 °C -6,9 °C 0,1 km/h (0 Bft)
27.12.2025 10:00 22,8 °C -4,6 °C 47 % 91 % 1033,0 hPa 0,0 l/m² 0,0 km/h (0 Bft) S-SW 1,00 h 202 W/m² -5,9 °C -4,6 °C 0,0 km/h (0 Bft)
27.12.2025 11:00 22,9 °C -1,3 °C 47 % 89 % 1032,4 hPa 0,0 l/m² 0,1 km/h (0 Bft) S-SW 1,00 h 271 W/m² -2,8 °C -1,3 °C 0,3 km/h (0 Bft)
27.12.2025 12:00 22,9 °C 0,5 °C 47 % 81 % 1030,7 hPa 0,0 l/m² 7,3 km/h (2 Bft) S-SW 1,00 h 269 W/m² -2,4 °C -1,6 °C 9,7 km/h (2 Bft)
27.12.2025 13:00 22,9 °C 1,4 °C 48 % 74 % 1030,0 hPa 0,0 l/m² 4,7 km/h (1 Bft) S-SW 1,00 h 232 W/m² -2,7 °C 0,7 °C 7,2 km/h (2 Bft)
27.12.2025 14:00 22,8 °C 2,8 °C 48 % 73 % 1029,6 hPa 0,0 l/m² 3,5 km/h (1 Bft) SW 0,90 h 132 W/m² -1,5 °C 2,2 °C 7,1 km/h (2 Bft)
27.12.2025 15:00 22,7 °C 2,2 °C 48 % 84 % 1029,0 hPa 0,0 l/m² 10,1 km/h (2 Bft) W 0,00 h 21 W/m² -0,2 °C -1,1 °C 15,6 km/h (3 Bft)
27.12.2025 16:00 22,6 °C 2,5 °C 49 % 89 % 1029,1 hPa 0,0 l/m² 13,2 km/h (3 Bft) W 0,00 h 5 W/m² 0,9 °C -2,7 °C 18,9 km/h (3 Bft)
27.12.2025 17:00 22,4 °C 2,8 °C 49 % 91 % 1028,9 hPa 0,0 l/m² 8,7 km/h (2 Bft) W 0,00 h 0 W/m² 1,4 °C 0,5 °C 13,7 km/h (3 Bft)
27.12.2025 18:00 22,3 °C 2,9 °C 49 % 92 % 1028,6 hPa 0,0 l/m² 5,7 km/h (2 Bft) W 0,00 h 0 W/m² 1,7 °C 2,2 °C 9,5 km/h (2 Bft)
27.12.2025 19:00 22,3 °C 3,2 °C 49 % 92 % 1028,6 hPa 0,0 l/m² 6,2 km/h (2 Bft) W 0,00 h 0 W/m² 2,1 °C 2,3 °C 11,1 km/h (2 Bft)
27.12.2025 20:00 22,3 °C 3,6 °C 49 % 93 % 1028,8 hPa 0,0 l/m² 8,6 km/h (2 Bft) W 0,00 h 0 W/m² 2,5 °C 1,4 °C 13,3 km/h (3 Bft)
27.12.2025 21:00 22,3 °C 3,8 °C 49 % 92 % 1029,2 hPa 0,0 l/m² 5,6 km/h (2 Bft) W-NW 0,00 h 0 W/m² 2,6 °C 3,4 °C 10,9 km/h (2 Bft)
27.12.2025 22:00 22,4 °C 3,9 °C 49 % 91 % 1029,4 hPa 0,0 l/m² 4,8 km/h (1 Bft) W-NW 0,00 h 0 W/m² 2,6 °C 3,6 °C 10,8 km/h (2 Bft)
27.12.2025 23:00 22,2 °C 3,7 °C 49 % 90 % 1029,7 hPa 0,0 l/m² 2,9 km/h (1 Bft) W-NW 0,00 h 0 W/m² 2,2 °C 3,6 °C 7,4 km/h (2 Bft)
28.12.2025 00:00 22,1 °C 2,9 °C 49 % 90 % 1030,2 hPa 0,0 l/m² 1,9 km/h (1 Bft) NW 0,00 h 0 W/m² 1,5 °C 2,9 °C 5,0 km/h (1 Bft)
28.12.2025 01:00 22,1 °C 1,5 °C 49 % 90 % 1030,5 hPa 0,0 l/m² 1,3 km/h (1 Bft) W-NW 0,00 h 0 W/m² -0,0 °C 1,5 °C 3,7 km/h (1 Bft)
28.12.2025 02:00 22,0 °C 0,5 °C 49 % 90 % 1030,9 hPa 0,0 l/m² 4,4 km/h (1 Bft) NW 0,00 h 0 W/m² -0,9 °C -0,6 °C 8,1 km/h (2 Bft)
28.12.2025 03:00 22,1 °C 0,9 °C 50 % 92 % 1031,0 hPa 0,0 l/m² 5,4 km/h (2 Bft) W-NW 0,00 h 0 W/m² -0,2 °C 0,4 °C 11,2 km/h (2 Bft)
28.12.2025 04:00 22,1 °C 0,8 °C 50 % 92 % 1031,0 hPa 0,0 l/m² 4,8 km/h (1 Bft) W-NW 0,00 h 0 W/m² -0,4 °C 0,4 °C 10,1 km/h (2 Bft)
28.12.2025 05:00 22,1 °C 0,4 °C 50 % 92 % 1030,7 hPa 0,0 l/m² 3,8 km/h (1 Bft) W-NW 0,00 h 0 W/m² -0,8 °C 0,2 °C 9,1 km/h (2 Bft)
28.12.2025 06:00 22,1 °C -1,2 °C 50 % 92 % 1030,6 hPa 0,0 l/m² 1,2 km/h (1 Bft) W 0,00 h 0 W/m² -2,4 °C -1,2 °C 3,8 km/h (1 Bft)
28.12.2025 07:00 22,1 °C -1,6 °C 50 % 92 % 1031,0 hPa 0,0 l/m² 1,7 km/h (1 Bft) NW 0,00 h 0 W/m² -2,8 °C -1,6 °C 4,0 km/h (1 Bft)
28.12.2025 08:00 22,2 °C -2,0 °C 50 % 92 % 1031,5 hPa 0,0 l/m² 0,9 km/h (0 Bft) W-NW 0,00 h 16 W/m² -3,2 °C -2,0 °C 2,2 km/h (1 Bft)
28.12.2025 09:00 22,9 °C -1,6 °C 49 % 92 % 1032,1 hPa 0,0 l/m² 0,1 km/h (0 Bft) W-NW 0,93 h 99 W/m² -2,7 °C -1,6 °C 0,1 km/h (0 Bft)
28.12.2025 10:00 22,8 °C 0,4 °C 46 % 93 % 1032,4 hPa 0,0 l/m² 1,2 km/h (1 Bft) W-SW 1,00 h 186 W/m² -0,6 °C 0,4 °C 3,2 km/h (1 Bft)
28.12.2025 11:00 23,0 °C 2,0 °C 47 % 91 % 1032,3 hPa 0,0 l/m² 2,8 km/h (1 Bft) NW 1,00 h 249 W/m² 0,7 °C 2,0 °C 6,5 km/h (2 Bft)
28.12.2025 12:00 23,2 °C 3,7 °C 47 % 85 % 1031,7 hPa 0,0 l/m² 1,5 km/h (1 Bft) SW 1,00 h 282 W/m² 1,4 °C 3,7 °C 4,0 km/h (1 Bft)
28.12.2025 13:00 23,0 °C 4,2 °C 47 % 80 % 1031,7 hPa 0,0 l/m² 2,6 km/h (1 Bft) W 0,98 h 240 W/m² 1,1 °C 4,2 °C 4,9 km/h (1 Bft)
28.12.2025 14:00 22,9 °C 4,0 °C 49 % 78 % 1031,2 hPa 0,0 l/m² 3,2 km/h (1 Bft) W 1,00 h 149 W/m² 0,6 °C 4,0 °C 6,0 km/h (2 Bft)
28.12.2025 15:00 23,0 °C 3,4 °C 50 % 79 % 1030,3 hPa 0,0 l/m² 0,9 km/h (0 Bft) W-NW 0,38 h 44 W/m² 0,1 °C 3,4 °C 1,6 km/h (1 Bft)
28.12.2025 16:00 22,9 °C 1,5 °C 50 % 79 % 1029,9 hPa 0,0 l/m² 0,0 km/h (0 Bft) W-NW 0,00 h 7 W/m² -1,8 °C 1,5 °C 0,0 km/h (0 Bft)
28.12.2025 17:00 22,6 °C -1,2 °C 52 % 83 % 1029,6 hPa 0,0 l/m² 0,0 km/h (0 Bft) W 0,00 h 0 W/m² -3,8 °C -1,2 °C 0,0 km/h (0 Bft)
28.12.2025 18:00 22,4 °C -2,6 °C 53 % 85 % 1029,2 hPa 0,0 l/m² 0,0 km/h (0 Bft) SW 0,00 h 0 W/m² -4,7 °C -2,6 °C 0,3 km/h (0 Bft)
28.12.2025 19:00 22,5 °C -3,7 °C 55 % 87 % 1028,9 hPa 0,0 l/m² 0,0 km/h (0 Bft) SW 0,00 h 0 W/m² -5,5 °C -3,7 °C 0,0 km/h (0 Bft)
28.12.2025 20:00 22,8 °C -4,7 °C 55 % 88 % 1028,6 hPa 0,0 l/m² 0,0 km/h (0 Bft) SW 0,00 h 0 W/m² -6,4 °C -4,7 °C 0,1 km/h (0 Bft)
28.12.2025 21:00 23,1 °C -5,0 °C 55 % 89 % 1027,9 hPa 0,0 l/m² 0,0 km/h (0 Bft) S-SW 0,00 h 0 W/m² -6,5 °C -5,0 °C 0,2 km/h (0 Bft)
28.12.2025 22:00 22,9 °C -5,2 °C 53 % 89 % 1027,2 hPa 0,0 l/m² 0,4 km/h (0 Bft) S-SW 0,00 h 0 W/m² -6,6 °C -5,2 °C 0,9 km/h (0 Bft)
28.12.2025 23:00 22,8 °C -5,4 °C 53 % 90 % 1026,4 hPa 0,0 l/m² 3,6 km/h (1 Bft) S-SW 0,00 h 0 W/m² -6,8 °C -6,4 °C 6,1 km/h (2 Bft)
Min-Datum _ 23.12.25 26.12.25 25.12.25 27.12.25 22.12.25 - 28.12.25 - - - 26.12.25 25.12.25 28.12.25
_ Min-Zeit 19:01 04:03 17:39 14:05 13:52 - 23:00 - - - 00:31 04:41 23:00
Minimum _ 21,3 °C -8,6 °C 38 % 71 % 1015,3 hPa - 0,0 km/h (0 Bft) - - - -10,3 °C -16,2 °C 0,0 km/h (0 Bft)
Max-Datum _ 26.12.25 22.12.25 23.12.25 28.12.25 25.12.25 28.12.25 22.12.25 - 28.12.25 28.12.25 22.12.25 22.12.25 22.12.25
_ Max-Zeit 22:05 03:00 18:25 11:01 10:03 23:00 10:08 - 12:10 12:19 02:12 16:24 10:07
Maximum _ 23,4 °C 5,9 °C 59 % 93 % 1036,8 hPa 0,0 l/m² 27,9 km/h
O (5 Bft)
- 0,17 h 287 W/m² 4,8 °C 5,5 °C 38,6 km/h
O (6 Bft)
Durchschnitt _ 22,2 °C -1,2 °C 52 % 86 % 1029,0 hPa #0,0 l/m² 6,3 km/h (2 Bft) NO #26:24 h 29 W/m² -3,2 °C -3,1 °C 10,5 km/h (2 Bft)
© 2009 Mathias Hoßbach